Sawyer, North Dakota
Current Conditions -  °F | °C
As of 3:54 PM on Friday 24 Oct 2014 (Local Time) from KMOT Reporting Station
Clear Clear  
Wind Chill: 65°   Ceiling: Unl
Heat Index: 65°   Visibility: 10mi
Dew Point: 27°   Wind: 23mph
Humidity: 24%   Direction: 270°W
Pressure: 29.85"   Gusts: 37mph
Location:  48.09°N, 101.05°W
Report Text: KMOT 242054Z 27020G32KT 10SM CLR 18/M03 A2985 RMK AO2 PK WND 26035/2019 SLP111 60000 T01831028 53002
Loading
Personal Weather Stations






























Interactive Weather Map
Tropical Storm Tracking
New forecast layout! Learn more

10-Day Weather Forecast

Advertisements
Track Severe Weather on mobile